sensor_id;sensor_type;location;lat;lon;timestamp;P1;durP1;ratioP1;P2;durP2;ratioP2
61785;SDS011;47692;53.714;11.372;2022-11-20T00:00:48;7.80;;;4.68;;
61785;SDS011;47692;53.714;11.372;2022-11-20T00:03:13;7.43;;;4.85;;
61785;SDS011;47692;53.714;11.372;2022-11-20T00:05:39;8.68;;;5.15;;
61785;SDS011;47692;53.714;11.372;2022-11-20T00:08:04;7.00;;;4.53;;
61785;SDS011;47692;53.714;11.372;2022-11-20T00:10:30;11.10;;;4.95;;
61785;SDS011;47692;53.714;11.372;2022-11-20T00:12:57;8.90;;;5.22;;
61785;SDS011;47692;53.714;11.372;2022-11-20T00:15:23;9.27;;;4.80;;
61785;SDS011;47692;53.714;11.372;2022-11-20T00:17:48;8.30;;;5.03;;
61785;SDS011;47692;53.714;11.372;2022-11-20T00:20:14;8.40;;;5.18;;
61785;SDS011;47692;53.714;11.372;2022-11-20T00:22:39;8.73;;;4.93;;
61785;SDS011;47692;53.714;11.372;2022-11-20T00:25:05;10.43;;;5.93;;
61785;SDS011;47692;53.714;11.372;2022-11-20T00:27:30;9.30;;;6.13;;
61785;SDS011;47692;53.714;11.372;2022-11-20T00:29:55;9.93;;;5.97;;
61785;SDS011;47692;53.714;11.372;2022-11-20T00:32:21;12.20;;;6.05;;
61785;SDS011;47692;53.714;11.372;2022-11-20T00:34:46;11.15;;;5.75;;
61785;SDS011;47692;53.714;11.372;2022-11-20T00:37:11;9.68;;;5.80;;
61785;SDS011;47692;53.714;11.372;2022-11-20T00:39:37;10.85;;;6.05;;
61785;SDS011;47692;53.714;11.372;2022-11-20T00:42:02;10.25;;;6.13;;
61785;SDS011;47692;53.714;11.372;2022-11-20T00:44:27;9.18;;;4.72;;
61785;SDS011;47692;53.714;11.372;2022-11-20T00:46:53;10.00;;;5.90;;
61785;SDS011;47692;53.714;11.372;2022-11-20T00:49:18;10.18;;;5.57;;
61785;SDS011;47692;53.714;11.372;2022-11-20T00:51:43;10.15;;;5.88;;
61785;SDS011;47692;53.714;11.372;2022-11-20T00:54:09;11.00;;;5.13;;
61785;SDS011;47692;53.714;11.372;2022-11-20T00:56:34;9.27;;;5.25;;
61785;SDS011;47692;53.714;11.372;2022-11-20T00:59:00;10.30;;;5.68;;
61785;SDS011;47692;53.714;11.372;2022-11-20T01:01:26;8.05;;;4.75;;
61785;SDS011;47692;53.714;11.372;2022-11-20T01:03:55;9.38;;;5.50;;
61785;SDS011;47692;53.714;11.372;2022-11-20T01:06:23;8.77;;;4.47;;
61785;SDS011;47692;53.714;11.372;2022-11-20T01:08:55;9.57;;;5.53;;
61785;SDS011;47692;53.714;11.372;2022-11-20T01:11:23;8.18;;;4.57;;
61785;SDS011;47692;53.714;11.372;2022-11-20T01:13:51;8.60;;;4.90;;
61785;SDS011;47692;53.714;11.372;2022-11-20T01:16:18;8.43;;;5.25;;
61785;SDS011;47692;53.714;11.372;2022-11-20T01:18:46;9.15;;;5.55;;
61785;SDS011;47692;53.714;11.372;2022-11-20T01:21:15;10.60;;;5.05;;
61785;SDS011;47692;53.714;11.372;2022-11-20T01:23:43;7.63;;;4.70;;
61785;SDS011;47692;53.714;11.372;2022-11-20T01:26:10;8.55;;;4.85;;
61785;SDS011;47692;53.714;11.372;2022-11-20T01:28:40;9.93;;;5.18;;
61785;SDS011;47692;53.714;11.372;2022-11-20T01:31:22;9.73;;;5.50;;
61785;SDS011;47692;53.714;11.372;2022-11-20T01:33:54;9.13;;;5.13;;
61785;SDS011;47692;53.714;11.372;2022-11-20T01:36:22;8.25;;;5.10;;
61785;SDS011;47692;53.714;11.372;2022-11-20T01:38:53;8.20;;;5.05;;
61785;SDS011;47692;53.714;11.372;2022-11-20T01:41:20;6.90;;;4.72;;
61785;SDS011;47692;53.714;11.372;2022-11-20T01:44:05;8.48;;;4.57;;
61785;SDS011;47692;53.714;11.372;2022-11-20T01:46:32;8.15;;;5.05;;
61785;SDS011;47692;53.714;11.372;2022-11-20T01:49:08;8.35;;;4.68;;
61785;SDS011;47692;53.714;11.372;2022-11-20T01:51:45;9.10;;;4.95;;
61785;SDS011;47692;53.714;11.372;2022-11-20T01:54:18;8.15;;;5.03;;
61785;SDS011;47692;53.714;11.372;2022-11-20T01:56:47;8.63;;;5.03;;
61785;SDS011;47692;53.714;11.372;2022-11-20T01:59:17;9.05;;;4.85;;
61785;SDS011;47692;53.714;11.372;2022-11-20T02:01:44;7.13;;;4.63;;
61785;SDS011;47692;53.714;11.372;2022-11-20T02:04:09;9.57;;;5.18;;
61785;SDS011;47692;53.714;11.372;2022-11-20T02:06:43;9.90;;;5.68;;
61785;SDS011;47692;53.714;11.372;2022-11-20T02:09:12;9.40;;;4.88;;
61785;SDS011;47692;53.714;11.372;2022-11-20T02:11:39;9.00;;;5.60;;
61785;SDS011;47692;53.714;11.372;2022-11-20T02:14:04;9.15;;;5.75;;
61785;SDS011;47692;53.714;11.372;2022-11-20T02:16:31;8.73;;;5.55;;
61785;SDS011;47692;53.714;11.372;2022-11-20T02:19:01;9.02;;;5.72;;
61785;SDS011;47692;53.714;11.372;2022-11-20T02:21:37;9.05;;;5.47;;
61785;SDS011;47692;53.714;11.372;2022-11-20T02:24:14;11.25;;;5.28;;
61785;SDS011;47692;53.714;11.372;2022-11-20T02:26:52;9.75;;;5.35;;
61785;SDS011;47692;53.714;11.372;2022-11-20T02:29:25;10.82;;;6.03;;
61785;SDS011;47692;53.714;11.372;2022-11-20T02:34:18;9.77;;;5.50;;
61785;SDS011;47692;53.714;11.372;2022-11-20T02:36:44;8.65;;;5.10;;
61785;SDS011;47692;53.714;11.372;2022-11-20T02:39:11;9.93;;;5.43;;
61785;SDS011;47692;53.714;11.372;2022-11-20T02:41:38;9.18;;;5.28;;
61785;SDS011;47692;53.714;11.372;2022-11-20T02:44:04;10.57;;;5.63;;
61785;SDS011;47692;53.714;11.372;2022-11-20T02:46:30;9.07;;;5.13;;
61785;SDS011;47692;53.714;11.372;2022-11-20T02:48:56;8.52;;;5.20;;
61785;SDS011;47692;53.714;11.372;2022-11-20T02:51:21;9.25;;;5.75;;
61785;SDS011;47692;53.714;11.372;2022-11-20T02:53:47;11.10;;;5.35;;
61785;SDS011;47692;53.714;11.372;2022-11-20T02:56:12;10.77;;;5.60;;
61785;SDS011;47692;53.714;11.372;2022-11-20T02:58:38;9.25;;;5.78;;
61785;SDS011;47692;53.714;11.372;2022-11-20T03:01:03;9.30;;;5.45;;
61785;SDS011;47692;53.714;11.372;2022-11-20T03:03:29;10.05;;;5.18;;
61785;SDS011;47692;53.714;11.372;2022-11-20T03:05:54;7.68;;;5.07;;
61785;SDS011;47692;53.714;11.372;2022-11-20T03:08:19;9.80;;;5.50;;
61785;SDS011;47692;53.714;11.372;2022-11-20T03:10:45;8.98;;;5.28;;
61785;SDS011;47692;53.714;11.372;2022-11-20T03:13:10;9.50;;;5.53;;
61785;SDS011;47692;53.714;11.372;2022-11-20T03:15:36;10.15;;;5.43;;
61785;SDS011;47692;53.714;11.372;2022-11-20T03:18:02;9.25;;;5.15;;
61785;SDS011;47692;53.714;11.372;2022-11-20T03:20:27;10.40;;;4.85;;
61785;SDS011;47692;53.714;11.372;2022-11-20T03:22:53;8.20;;;4.93;;
61785;SDS011;47692;53.714;11.372;2022-11-20T03:25:19;8.20;;;4.70;;
61785;SDS011;47692;53.714;11.372;2022-11-20T03:27:45;9.40;;;5.25;;
61785;SDS011;47692;53.714;11.372;2022-11-20T03:30:10;7.60;;;4.95;;
61785;SDS011;47692;53.714;11.372;2022-11-20T03:32:36;8.32;;;5.15;;
61785;SDS011;47692;53.714;11.372;2022-11-20T03:35:01;10.88;;;5.40;;
61785;SDS011;47692;53.714;11.372;2022-11-20T03:37:27;8.73;;;4.88;;
61785;SDS011;47692;53.714;11.372;2022-11-20T03:39:52;9.65;;;5.35;;
61785;SDS011;47692;53.714;11.372;2022-11-20T03:42:17;9.73;;;5.40;;
61785;SDS011;47692;53.714;11.372;2022-11-20T03:45:01;11.05;;;6.35;;
61785;SDS011;47692;53.714;11.372;2022-11-20T03:47:27;9.05;;;5.78;;
61785;SDS011;47692;53.714;11.372;2022-11-20T03:49:52;9.90;;;5.50;;
61785;SDS011;47692;53.714;11.372;2022-11-20T03:52:18;10.80;;;6.55;;
61785;SDS011;47692;53.714;11.372;2022-11-20T03:54:43;10.30;;;4.90;;
61785;SDS011;47692;53.714;11.372;2022-11-20T03:57:08;9.05;;;5.32;;
61785;SDS011;47692;53.714;11.372;2022-11-20T03:59:33;9.73;;;5.68;;
61785;SDS011;47692;53.714;11.372;2022-11-20T04:01:59;9.27;;;5.38;;
61785;SDS011;47692;53.714;11.372;2022-11-20T04:04:24;10.55;;;6.20;;
61785;SDS011;47692;53.714;11.372;2022-11-20T04:06:49;9.82;;;5.57;;
61785;SDS011;47692;53.714;11.372;2022-11-20T04:09:15;9.98;;;5.63;;
61785;SDS011;47692;53.714;11.372;2022-11-20T04:11:40;10.32;;;6.00;;
61785;SDS011;47692;53.714;11.372;2022-11-20T04:14:06;10.68;;;6.40;;
61785;SDS011;47692;53.714;11.372;2022-11-20T04:16:37;9.60;;;5.57;;
61785;SDS011;47692;53.714;11.372;2022-11-20T04:19:04;10.88;;;5.80;;
61785;SDS011;47692;53.714;11.372;2022-11-20T04:21:31;8.98;;;5.43;;
61785;SDS011;47692;53.714;11.372;2022-11-20T04:23:57;10.05;;;6.15;;
61785;SDS011;47692;53.714;11.372;2022-11-20T04:26:23;10.68;;;5.47;;
61785;SDS011;47692;53.714;11.372;2022-11-20T04:28:50;10.77;;;6.05;;
61785;SDS011;47692;53.714;11.372;2022-11-20T04:31:17;11.27;;;6.32;;
61785;SDS011;47692;53.714;11.372;2022-11-20T04:33:45;11.60;;;6.32;;
61785;SDS011;47692;53.714;11.372;2022-11-20T04:36:14;13.35;;;6.80;;
61785;SDS011;47692;53.714;11.372;2022-11-20T04:38:41;10.60;;;6.45;;
61785;SDS011;47692;53.714;11.372;2022-11-20T04:41:07;11.00;;;5.85;;
61785;SDS011;47692;53.714;11.372;2022-11-20T04:43:38;13.38;;;6.78;;
61785;SDS011;47692;53.714;11.372;2022-11-20T04:46:03;12.15;;;6.35;;
61785;SDS011;47692;53.714;11.372;2022-11-20T04:48:29;12.27;;;6.40;;
61785;SDS011;47692;53.714;11.372;2022-11-20T04:50:54;12.25;;;6.47;;
61785;SDS011;47692;53.714;11.372;2022-11-20T04:53:21;12.00;;;6.38;;
61785;SDS011;47692;53.714;11.372;2022-11-20T04:55:47;11.50;;;6.40;;
61785;SDS011;47692;53.714;11.372;2022-11-20T04:58:13;12.25;;;6.72;;
61785;SDS011;47692;53.714;11.372;2022-11-20T05:00:39;10.82;;;6.32;;
61785;SDS011;47692;53.714;11.372;2022-11-20T05:03:04;12.07;;;6.13;;
61785;SDS011;47692;53.714;11.372;2022-11-20T05:05:29;11.93;;;5.82;;
61785;SDS011;47692;53.714;11.372;2022-11-20T05:07:58;13.98;;;6.88;;
61785;SDS011;47692;53.714;11.372;2022-11-20T05:10:24;13.13;;;7.50;;
61785;SDS011;47692;53.714;11.372;2022-11-20T05:12:50;14.45;;;6.97;;
61785;SDS011;47692;53.714;11.372;2022-11-20T05:15:15;13.07;;;7.38;;
61785;SDS011;47692;53.714;11.372;2022-11-20T05:17:41;12.15;;;6.68;;
61785;SDS011;47692;53.714;11.372;2022-11-20T05:20:06;13.90;;;6.55;;
61785;SDS011;47692;53.714;11.372;2022-11-20T05:22:32;10.70;;;6.00;;
61785;SDS011;47692;53.714;11.372;2022-11-20T05:24:57;11.95;;;6.18;;
61785;SDS011;47692;53.714;11.372;2022-11-20T05:27:23;11.80;;;6.30;;
61785;SDS011;47692;53.714;11.372;2022-11-20T05:29:48;12.20;;;6.57;;
61785;SDS011;47692;53.714;11.372;2022-11-20T05:32:13;10.63;;;6.13;;
61785;SDS011;47692;53.714;11.372;2022-11-20T05:34:39;10.68;;;5.75;;
61785;SDS011;47692;53.714;11.372;2022-11-20T05:37:04;11.88;;;6.50;;
61785;SDS011;47692;53.714;11.372;2022-11-20T05:39:29;10.98;;;6.03;;
61785;SDS011;47692;53.714;11.372;2022-11-20T05:41:55;9.90;;;5.88;;
61785;SDS011;47692;53.714;11.372;2022-11-20T05:44:39;8.38;;;5.22;;
61785;SDS011;47692;53.714;11.372;2022-11-20T05:47:05;12.05;;;4.97;;
61785;SDS011;47692;53.714;11.372;2022-11-20T05:49:30;8.20;;;4.88;;
61785;SDS011;47692;53.714;11.372;2022-11-20T05:51:55;11.60;;;5.93;;
61785;SDS011;47692;53.714;11.372;2022-11-20T05:54:21;10.73;;;5.18;;
61785;SDS011;47692;53.714;11.372;2022-11-20T05:56:46;9.38;;;5.40;;
61785;SDS011;47692;53.714;11.372;2022-11-20T05:59:11;9.02;;;5.55;;
61785;SDS011;47692;53.714;11.372;2022-11-20T06:01:37;9.07;;;5.53;;
61785;SDS011;47692;53.714;11.372;2022-11-20T06:04:02;8.98;;;4.80;;
61785;SDS011;47692;53.714;11.372;2022-11-20T06:06:28;8.55;;;5.65;;
61785;SDS011;47692;53.714;11.372;2022-11-20T06:08:53;8.05;;;4.75;;
61785;SDS011;47692;53.714;11.372;2022-11-20T06:11:20;8.07;;;4.78;;
61785;SDS011;47692;53.714;11.372;2022-11-20T06:13:45;8.30;;;4.72;;
61785;SDS011;47692;53.714;11.372;2022-11-20T06:16:12;7.72;;;4.70;;
61785;SDS011;47692;53.714;11.372;2022-11-20T06:18:39;7.63;;;4.97;;
61785;SDS011;47692;53.714;11.372;2022-11-20T06:21:06;8.32;;;4.70;;
61785;SDS011;47692;53.714;11.372;2022-11-20T06:23:33;7.32;;;4.63;;
61785;SDS011;47692;53.714;11.372;2022-11-20T06:26:09;7.68;;;4.63;;
61785;SDS011;47692;53.714;11.372;2022-11-20T06:28:36;9.10;;;5.00;;
61785;SDS011;47692;53.714;11.372;2022-11-20T06:31:02;7.57;;;4.88;;
61785;SDS011;47692;53.714;11.372;2022-11-20T06:33:28;8.15;;;4.63;;
61785;SDS011;47692;53.714;11.372;2022-11-20T06:35:55;8.63;;;4.93;;
61785;SDS011;47692;53.714;11.372;2022-11-20T06:38:22;8.55;;;5.50;;
61785;SDS011;47692;53.714;11.372;2022-11-20T06:40:48;9.43;;;5.35;;
61785;SDS011;47692;53.714;11.372;2022-11-20T06:43:13;8.25;;;5.43;;
61785;SDS011;47692;53.714;11.372;2022-11-20T06:45:39;10.80;;;5.50;;
61785;SDS011;47692;53.714;11.372;2022-11-20T06:48:04;9.35;;;6.65;;
61785;SDS011;47692;53.714;11.372;2022-11-20T06:50:29;9.10;;;5.57;;
61785;SDS011;47692;53.714;11.372;2022-11-20T06:52:55;9.25;;;5.85;;
61785;SDS011;47692;53.714;11.372;2022-11-20T06:55:20;8.88;;;5.50;;
61785;SDS011;47692;53.714;11.372;2022-11-20T06:57:46;10.25;;;5.93;;
61785;SDS011;47692;53.714;11.372;2022-11-20T07:00:11;10.65;;;6.05;;
61785;SDS011;47692;53.714;11.372;2022-11-20T07:02:37;11.30;;;6.53;;
61785;SDS011;47692;53.714;11.372;2022-11-20T07:05:03;12.35;;;7.30;;
61785;SDS011;47692;53.714;11.372;2022-11-20T07:07:28;11.45;;;6.65;;
61785;SDS011;47692;53.714;11.372;2022-11-20T07:09:54;12.05;;;6.40;;
61785;SDS011;47692;53.714;11.372;2022-11-20T07:12:19;9.68;;;5.78;;
61785;SDS011;47692;53.714;11.372;2022-11-20T07:14:44;13.45;;;7.35;;
61785;SDS011;47692;53.714;11.372;2022-11-20T07:17:10;12.90;;;7.10;;
61785;SDS011;47692;53.714;11.372;2022-11-20T07:19:36;15.63;;;7.88;;
61785;SDS011;47692;53.714;11.372;2022-11-20T07:22:01;11.13;;;5.85;;
61785;SDS011;47692;53.714;11.372;2022-11-20T07:24:26;11.35;;;6.45;;
61785;SDS011;47692;53.714;11.372;2022-11-20T07:26:52;11.30;;;6.10;;
61785;SDS011;47692;53.714;11.372;2022-11-20T07:29:17;10.95;;;6.47;;
61785;SDS011;47692;53.714;11.372;2022-11-20T07:31:42;12.35;;;7.22;;
61785;SDS011;47692;53.714;11.372;2022-11-20T07:34:08;12.70;;;6.40;;
61785;SDS011;47692;53.714;11.372;2022-11-20T07:36:33;10.98;;;6.85;;
61785;SDS011;47692;53.714;11.372;2022-11-20T07:38:59;15.07;;;7.72;;
61785;SDS011;47692;53.714;11.372;2022-11-20T07:41:24;17.17;;;9.20;;
61785;SDS011;47692;53.714;11.372;2022-11-20T07:43:50;13.13;;;7.45;;
61785;SDS011;47692;53.714;11.372;2022-11-20T07:46:15;9.82;;;5.82;;
61785;SDS011;47692;53.714;11.372;2022-11-20T07:48:40;10.23;;;6.20;;
61785;SDS011;47692;53.714;11.372;2022-11-20T07:51:05;10.40;;;6.40;;
61785;SDS011;47692;53.714;11.372;2022-11-20T07:53:31;11.88;;;6.50;;
61785;SDS011;47692;53.714;11.372;2022-11-20T07:56:00;10.30;;;5.43;;
61785;SDS011;47692;53.714;11.372;2022-11-20T07:58:26;9.68;;;5.47;;
61785;SDS011;47692;53.714;11.372;2022-11-20T08:00:54;9.73;;;5.55;;
61785;SDS011;47692;53.714;11.372;2022-11-20T08:03:19;8.02;;;5.00;;
61785;SDS011;47692;53.714;11.372;2022-11-20T08:05:44;9.70;;;5.30;;
61785;SDS011;47692;53.714;11.372;2022-11-20T08:08:10;8.57;;;5.40;;
61785;SDS011;47692;53.714;11.372;2022-11-20T08:10:35;10.35;;;5.43;;
61785;SDS011;47692;53.714;11.372;2022-11-20T08:13:00;8.02;;;5.28;;
61785;SDS011;47692;53.714;11.372;2022-11-20T08:15:47;9.00;;;4.85;;
61785;SDS011;47692;53.714;11.372;2022-11-20T08:18:15;6.60;;;4.25;;
61785;SDS011;47692;53.714;11.372;2022-11-20T08:20:40;6.00;;;4.20;;
61785;SDS011;47692;53.714;11.372;2022-11-20T08:23:06;9.30;;;5.00;;
61785;SDS011;47692;53.714;11.372;2022-11-20T08:25:33;7.53;;;4.90;;
61785;SDS011;47692;53.714;11.372;2022-11-20T08:28:00;6.60;;;4.32;;
61785;SDS011;47692;53.714;11.372;2022-11-20T08:30:27;6.30;;;4.28;;
61785;SDS011;47692;53.714;11.372;2022-11-20T08:32:53;7.88;;;4.38;;
61785;SDS011;47692;53.714;11.372;2022-11-20T08:35:20;7.68;;;4.30;;
61785;SDS011;47692;53.714;11.372;2022-11-20T08:37:46;6.95;;;4.25;;
61785;SDS011;47692;53.714;11.372;2022-11-20T08:40:12;12.32;;;5.13;;
61785;SDS011;47692;53.714;11.372;2022-11-20T08:42:45;9.40;;;4.70;;
61785;SDS011;47692;53.714;11.372;2022-11-20T08:45:11;6.07;;;3.42;;
61785;SDS011;47692;53.714;11.372;2022-11-20T08:47:36;6.18;;;3.80;;
61785;SDS011;47692;53.714;11.372;2022-11-20T08:50:01;6.65;;;4.00;;
61785;SDS011;47692;53.714;11.372;2022-11-20T08:52:27;8.10;;;4.10;;
61785;SDS011;47692;53.714;11.372;2022-11-20T08:54:53;8.48;;;3.80;;
61785;SDS011;47692;53.714;11.372;2022-11-20T08:57:18;6.68;;;3.97;;
61785;SDS011;47692;53.714;11.372;2022-11-20T08:59:43;5.80;;;3.83;;
61785;SDS011;47692;53.714;11.372;2022-11-20T09:02:09;6.13;;;3.92;;
61785;SDS011;47692;53.714;11.372;2022-11-20T09:04:34;5.57;;;3.58;;
61785;SDS011;47692;53.714;11.372;2022-11-20T09:07:00;8.90;;;4.20;;
61785;SDS011;47692;53.714;11.372;2022-11-20T09:09:25;7.43;;;4.13;;
61785;SDS011;47692;53.714;11.372;2022-11-20T09:11:50;5.95;;;3.85;;
61785;SDS011;47692;53.714;11.372;2022-11-20T09:14:16;6.80;;;3.72;;
61785;SDS011;47692;53.714;11.372;2022-11-20T09:16:41;7.18;;;4.50;;
61785;SDS011;47692;53.714;11.372;2022-11-20T09:19:06;6.38;;;3.70;;
61785;SDS011;47692;53.714;11.372;2022-11-20T09:21:32;7.57;;;3.70;;
61785;SDS011;47692;53.714;11.372;2022-11-20T09:23:57;8.18;;;4.28;;
61785;SDS011;47692;53.714;11.372;2022-11-20T09:26:22;6.55;;;4.03;;
61785;SDS011;47692;53.714;11.372;2022-11-20T09:28:48;8.45;;;4.25;;
61785;SDS011;47692;53.714;11.372;2022-11-20T09:31:23;7.65;;;3.95;;
61785;SDS011;47692;53.714;11.372;2022-11-20T09:33:50;6.25;;;4.05;;
61785;SDS011;47692;53.714;11.372;2022-11-20T09:36:16;8.40;;;4.40;;
61785;SDS011;47692;53.714;11.372;2022-11-20T09:38:43;6.20;;;3.45;;
61785;SDS011;47692;53.714;11.372;2022-11-20T09:44:06;8.23;;;4.28;;
61785;SDS011;47692;53.714;11.372;2022-11-20T09:47:00;9.13;;;4.43;;
61785;SDS011;47692;53.714;11.372;2022-11-20T09:52:41;13.35;;;5.63;;
61785;SDS011;47692;53.714;11.372;2022-11-20T09:55:22;8.40;;;4.78;;
61785;SDS011;47692;53.714;11.372;2022-11-20T09:57:48;8.27;;;4.60;;
61785;SDS011;47692;53.714;11.372;2022-11-20T10:00:16;9.93;;;5.38;;
61785;SDS011;47692;53.714;11.372;2022-11-20T10:02:53;8.05;;;4.32;;
61785;SDS011;47692;53.714;11.372;2022-11-20T10:05:40;7.68;;;4.43;;
61785;SDS011;47692;53.714;11.372;2022-11-20T10:21:55;8.57;;;4.85;;
61785;SDS011;47692;53.714;11.372;2022-11-20T10:24:30;7.22;;;4.60;;
61785;SDS011;47692;53.714;11.372;2022-11-20T10:27:15;8.15;;;5.05;;
61785;SDS011;47692;53.714;11.372;2022-11-20T10:29:47;6.95;;;4.47;;
61785;SDS011;47692;53.714;11.372;2022-11-20T10:32:31;8.30;;;4.93;;
61785;SDS011;47692;53.714;11.372;2022-11-20T10:35:04;6.93;;;4.28;;
61785;SDS011;47692;53.714;11.372;2022-11-20T10:37:41;7.70;;;4.82;;
61785;SDS011;47692;53.714;11.372;2022-11-20T10:42:54;7.43;;;4.53;;
61785;SDS011;47692;53.714;11.372;2022-11-20T10:47:50;6.50;;;3.97;;
61785;SDS011;47692;53.714;11.372;2022-11-20T10:50:19;9.02;;;4.60;;
61785;SDS011;47692;53.714;11.372;2022-11-20T10:52:56;7.25;;;4.85;;
61785;SDS011;47692;53.714;11.372;2022-11-20T10:55:33;6.07;;;3.92;;
61785;SDS011;47692;53.714;11.372;2022-11-20T10:58:07;9.18;;;4.47;;
61785;SDS011;47692;53.714;11.372;2022-11-20T11:01:05;8.07;;;4.05;;
61785;SDS011;47692;53.714;11.372;2022-11-20T11:03:38;7.57;;;3.95;;
61785;SDS011;47692;53.714;11.372;2022-11-20T11:06:08;5.45;;;3.60;;
61785;SDS011;47692;53.714;11.372;2022-11-20T11:08:42;6.50;;;3.85;;
61785;SDS011;47692;53.714;11.372;2022-11-20T11:11:20;6.35;;;3.80;;
61785;SDS011;47692;53.714;11.372;2022-11-20T11:13:48;6.45;;;4.05;;
61785;SDS011;47692;53.714;11.372;2022-11-20T11:16:20;5.13;;;3.55;;
61785;SDS011;47692;53.714;11.372;2022-11-20T11:18:46;5.97;;;3.67;;
61785;SDS011;47692;53.714;11.372;2022-11-20T11:21:11;5.72;;;3.70;;
61785;SDS011;47692;53.714;11.372;2022-11-20T11:23:41;5.70;;;3.47;;
61785;SDS011;47692;53.714;11.372;2022-11-20T11:26:21;4.82;;;3.30;;
61785;SDS011;47692;53.714;11.372;2022-11-20T11:28:55;6.60;;;3.75;;
61785;SDS011;47692;53.714;11.372;2022-11-20T11:31:22;6.70;;;3.67;;
61785;SDS011;47692;53.714;11.372;2022-11-20T11:34:07;7.60;;;4.00;;
61785;SDS011;47692;53.714;11.372;2022-11-20T11:36:39;5.38;;;3.17;;
61785;SDS011;47692;53.714;11.372;2022-11-20T11:39:08;5.85;;;3.30;;
61785;SDS011;47692;53.714;11.372;2022-11-20T11:41:39;4.22;;;3.03;;
61785;SDS011;47692;53.714;11.372;2022-11-20T11:44:25;5.10;;;3.17;;
61785;SDS011;47692;53.714;11.372;2022-11-20T11:47:23;5.65;;;3.42;;
61785;SDS011;47692;53.714;11.372;2022-11-20T11:52:41;5.25;;;3.30;;
61785;SDS011;47692;53.714;11.372;2022-11-20T11:55:07;6.28;;;3.17;;
61785;SDS011;47692;53.714;11.372;2022-11-20T11:57:43;4.60;;;2.80;;
61785;SDS011;47692;53.714;11.372;2022-11-20T12:00:14;5.03;;;3.05;;
61785;SDS011;47692;53.714;11.372;2022-11-20T12:05:29;5.32;;;3.40;;
61785;SDS011;47692;53.714;11.372;2022-11-20T12:10:56;4.00;;;3.28;;
61785;SDS011;47692;53.714;11.372;2022-11-20T12:16:03;5.75;;;3.22;;
61785;SDS011;47692;53.714;11.372;2022-11-20T12:18:29;5.18;;;3.15;;
61785;SDS011;47692;53.714;11.372;2022-11-20T12:31:58;5.20;;;2.90;;
61785;SDS011;47692;53.714;11.372;2022-11-20T12:38:13;3.63;;;2.80;;
61785;SDS011;47692;53.714;11.372;2022-11-20T12:40:32;4.22;;;2.63;;
61785;SDS011;47692;53.714;11.372;2022-11-20T12:46:18;5.93;;;3.92;;
61785;SDS011;47692;53.714;11.372;2022-11-20T12:57:35;2.95;;;1.90;;
61785;SDS011;47692;53.714;11.372;2022-11-20T13:00:19;3.72;;;2.22;;
61785;SDS011;47692;53.714;11.372;2022-11-20T13:08:21;2.47;;;1.65;;
61785;SDS011;47692;53.714;11.372;2022-11-20T13:10:51;2.75;;;1.63;;
61785;SDS011;47692;53.714;11.372;2022-11-20T13:13:28;2.15;;;1.38;;
61785;SDS011;47692;53.714;11.372;2022-11-20T13:16:07;2.85;;;1.15;;
61785;SDS011;47692;53.714;11.372;2022-11-20T13:18:41;2.20;;;1.15;;
61785;SDS011;47692;53.714;11.372;2022-11-20T13:21:14;2.88;;;1.40;;
61785;SDS011;47692;53.714;11.372;2022-11-20T13:23:46;1.45;;;0.98;;
61785;SDS011;47692;53.714;11.372;2022-11-20T13:28:42;1.83;;;1.08;;
61785;SDS011;47692;53.714;11.372;2022-11-20T13:31:23;15.40;;;12.18;;
61785;SDS011;47692;53.714;11.372;2022-11-20T13:33:54;12.90;;;9.60;;
61785;SDS011;47692;53.714;11.372;2022-11-20T13:36:22;13.35;;;11.48;;
61785;SDS011;47692;53.714;11.372;2022-11-20T13:38:51;5.88;;;4.85;;
61785;SDS011;47692;53.714;11.372;2022-11-20T13:41:29;19.88;;;10.48;;
61785;SDS011;47692;53.714;11.372;2022-11-20T13:46:42;8.82;;;4.60;;
61785;SDS011;47692;53.714;11.372;2022-11-20T13:49:51;16.20;;;10.27;;
61785;SDS011;47692;53.714;11.372;2022-11-20T13:54:59;4.50;;;2.58;;
61785;SDS011;47692;53.714;11.372;2022-11-20T14:02:40;14.77;;;6.97;;
61785;SDS011;47692;53.714;11.372;2022-11-20T14:05:11;8.02;;;4.78;;
61785;SDS011;47692;53.714;11.372;2022-11-20T14:07:44;5.88;;;2.80;;
61785;SDS011;47692;53.714;11.372;2022-11-20T14:10:19;4.05;;;2.50;;
61785;SDS011;47692;53.714;11.372;2022-11-20T14:12:54;2.72;;;1.60;;
61785;SDS011;47692;53.714;11.372;2022-11-20T14:15:24;2.97;;;1.70;;
61785;SDS011;47692;53.714;11.372;2022-11-20T14:17:52;2.80;;;1.85;;
61785;SDS011;47692;53.714;11.372;2022-11-20T14:20:20;3.28;;;1.90;;
61785;SDS011;47692;53.714;11.372;2022-11-20T14:22:55;4.38;;;1.88;;
61785;SDS011;47692;53.714;11.372;2022-11-20T14:25:21;4.45;;;2.60;;
61785;SDS011;47692;53.714;11.372;2022-11-20T14:27:56;3.85;;;2.30;;
61785;SDS011;47692;53.714;11.372;2022-11-20T14:30:27;3.03;;;2.10;;
61785;SDS011;47692;53.714;11.372;2022-11-20T14:32:56;3.03;;;1.58;;
61785;SDS011;47692;53.714;11.372;2022-11-20T14:35:27;2.75;;;1.73;;
61785;SDS011;47692;53.714;11.372;2022-11-20T14:37:54;4.05;;;2.17;;
61785;SDS011;47692;53.714;11.372;2022-11-20T14:40:28;5.22;;;2.65;;
61785;SDS011;47692;53.714;11.372;2022-11-20T14:43:00;4.70;;;2.40;;
61785;SDS011;47692;53.714;11.372;2022-11-20T14:45:26;4.15;;;2.40;;
61785;SDS011;47692;53.714;11.372;2022-11-20T14:47:53;3.80;;;2.03;;
61785;SDS011;47692;53.714;11.372;2022-11-20T14:50:24;5.18;;;2.45;;
61785;SDS011;47692;53.714;11.372;2022-11-20T14:53:01;3.80;;;2.20;;
61785;SDS011;47692;53.714;11.372;2022-11-20T14:55:27;3.65;;;2.10;;
61785;SDS011;47692;53.714;11.372;2022-11-20T14:57:58;3.47;;;2.00;;
61785;SDS011;47692;53.714;11.372;2022-11-20T15:00:25;2.80;;;1.92;;
61785;SDS011;47692;53.714;11.372;2022-11-20T15:02:51;4.50;;;3.08;;
61785;SDS011;47692;53.714;11.372;2022-11-20T15:05:18;4.47;;;2.50;;
61785;SDS011;47692;53.714;11.372;2022-11-20T15:07:50;3.38;;;2.13;;
61785;SDS011;47692;53.714;11.372;2022-11-20T15:10:28;2.90;;;1.90;;
61785;SDS011;47692;53.714;11.372;2022-11-20T15:12:55;4.07;;;1.92;;
61785;SDS011;47692;53.714;11.372;2022-11-20T15:17:59;2.50;;;1.83;;
61785;SDS011;47692;53.714;11.372;2022-11-20T15:20:26;3.85;;;1.80;;
61785;SDS011;47692;53.714;11.372;2022-11-20T15:22:56;2.67;;;1.80;;
61785;SDS011;47692;53.714;11.372;2022-11-20T15:25:22;2.17;;;1.48;;
61785;SDS011;47692;53.714;11.372;2022-11-20T15:27:49;1.95;;;1.50;;
61785;SDS011;47692;53.714;11.372;2022-11-20T15:30:20;3.92;;;2.25;;
61785;SDS011;47692;53.714;11.372;2022-11-20T15:32:46;3.72;;;2.30;;
61785;SDS011;47692;53.714;11.372;2022-11-20T15:35:12;3.58;;;2.33;;
61785;SDS011;47692;53.714;11.372;2022-11-20T15:37:39;6.32;;;3.25;;
61785;SDS011;47692;53.714;11.372;2022-11-20T15:40:05;4.32;;;2.65;;
61785;SDS011;47692;53.714;11.372;2022-11-20T15:42:32;4.40;;;2.83;;
61785;SDS011;47692;53.714;11.372;2022-11-20T15:44:58;4.40;;;2.45;;
61785;SDS011;47692;53.714;11.372;2022-11-20T15:47:28;3.42;;;2.25;;
61785;SDS011;47692;53.714;11.372;2022-11-20T15:49:56;3.40;;;2.13;;
61785;SDS011;47692;53.714;11.372;2022-11-20T15:52:21;5.05;;;2.78;;
61785;SDS011;47692;53.714;11.372;2022-11-20T15:54:47;6.47;;;3.67;;
61785;SDS011;47692;53.714;11.372;2022-11-20T15:57:12;2.97;;;2.03;;
61785;SDS011;47692;53.714;11.372;2022-11-20T15:59:38;3.25;;;2.33;;
61785;SDS011;47692;53.714;11.372;2022-11-20T16:02:10;3.67;;;2.25;;
61785;SDS011;47692;53.714;11.372;2022-11-20T16:04:36;5.43;;;3.50;;